createdAt,value
2022-09-24T00:02:11.346Z,9.30
2022-09-24T00:04:39.373Z,9.93
2022-09-24T00:07:07.334Z,8.40
2022-09-24T00:09:35.236Z,9.13
2022-09-24T00:12:04.749Z,10.20
2022-09-24T00:14:33.147Z,6.97
2022-09-24T00:17:01.591Z,7.60
2022-09-24T00:19:30.236Z,10.73
2022-09-24T00:21:58.115Z,7.40
2022-09-24T00:24:42.738Z,8.68
2022-09-24T00:27:12.040Z,8.18
2022-09-24T00:29:39.932Z,11.68
2022-09-24T00:32:08.301Z,8.15
2022-09-24T00:34:36.262Z,7.95
2022-09-24T00:37:04.178Z,9.63
2022-09-24T00:39:32.144Z,8.20
2022-09-24T00:42:00.003Z,9.63
2022-09-24T00:44:54.167Z,10.05
2022-09-24T00:47:33.399Z,10.82
2022-09-24T00:50:16.737Z,8.35
2022-09-24T00:52:49.740Z,6.97
2022-09-24T00:55:19.797Z,8.82
2022-09-24T00:57:50.019Z,9.57
2022-09-24T01:00:21.984Z,9.27
2022-09-24T01:02:55.389Z,11.10
2022-09-24T01:05:23.557Z,10.52
2022-09-24T01:07:51.457Z,13.10
2022-09-24T01:10:39.321Z,10.05
2022-09-24T01:13:19.796Z,9.52
2022-09-24T01:15:51.644Z,7.95
2022-09-24T01:18:32.264Z,9.57
2022-09-24T01:21:27.000Z,9.60
2022-09-24T01:24:42.797Z,12.77
2022-09-24T01:27:17.422Z,11.55
2022-09-24T01:30:02.903Z,9.45
2022-09-24T01:32:37.245Z,8.57
2022-09-24T01:35:13.416Z,9.38
2022-09-24T01:37:45.259Z,10.32
2022-09-24T01:40:13.913Z,9.18
2022-09-24T01:42:46.154Z,8.40
2022-09-24T01:45:17.374Z,11.10
2022-09-24T01:47:45.878Z,8.98
2022-09-24T01:50:17.555Z,9.15
2022-09-24T01:52:53.014Z,9.17
2022-09-24T01:55:25.428Z,10.68
2022-09-24T01:57:58.273Z,10.07
2022-09-24T02:00:28.187Z,9.27
2022-09-24T02:03:01.470Z,7.78
2022-09-24T02:05:35.484Z,10.90
2022-09-24T02:08:09.080Z,10.98
2022-09-24T02:10:46.283Z,10.35
2022-09-24T02:13:17.508Z,10.35
2022-09-24T02:15:51.557Z,9.60
2022-09-24T02:18:23.093Z,11.55
2022-09-24T02:20:53.570Z,9.52
2022-09-24T02:23:21.958Z,10.25
2022-09-24T02:25:54.351Z,12.35
2022-09-24T02:28:22.738Z,8.77
2022-09-24T02:30:56.031Z,11.15
2022-09-24T02:33:44.320Z,9.40
2022-09-24T02:36:12.600Z,8.02
2022-09-24T02:38:40.525Z,9.52
2022-09-24T02:41:09.139Z,10.63
2022-09-24T02:43:37.103Z,12.18
2022-09-24T02:46:06.602Z,12.95
2022-09-24T02:48:34.655Z,10.02
2022-09-24T02:51:04.114Z,11.25
2022-09-24T02:53:32.334Z,10.07
2022-09-24T02:56:01.384Z,11.68
2022-09-24T02:58:29.841Z,10.63
2022-09-24T03:00:58.186Z,11.15
2022-09-24T03:03:27.741Z,12.07
2022-09-24T03:05:55.599Z,9.88
2022-09-24T03:08:24.649Z,11.27
2022-09-24T03:10:53.096Z,12.00
2022-09-24T03:13:21.044Z,12.55
2022-09-24T03:15:49.167Z,10.52
2022-09-24T03:18:17.263Z,10.85
2022-09-24T03:20:56.039Z,10.48
2022-09-24T03:23:24.046Z,11.68
2022-09-24T03:25:52.017Z,10.85
2022-09-24T03:28:20.024Z,12.00
2022-09-24T03:31:03.407Z,11.50
2022-09-24T03:33:33.768Z,9.10
2022-09-24T03:36:05.154Z,12.05
2022-09-24T03:38:33.757Z,10.63
2022-09-24T03:41:02.377Z,10.13
2022-09-24T03:43:31.271Z,11.45
2022-09-24T03:46:00.030Z,11.95
2022-09-24T03:48:30.045Z,12.25
2022-09-24T03:50:57.988Z,10.38
2022-09-24T03:53:27.267Z,12.77
2022-09-24T03:55:57.041Z,10.05
2022-09-24T03:58:26.079Z,11.65
2022-09-24T04:00:54.492Z,12.52
2022-09-24T04:03:22.725Z,13.00
2022-09-24T04:05:51.920Z,11.23
2022-09-24T04:08:20.054Z,14.48
2022-09-24T04:10:50.840Z,11.52
2022-09-24T04:13:19.742Z,9.75
2022-09-24T04:15:48.920Z,13.90
2022-09-24T04:18:17.248Z,11.52
2022-09-24T04:20:45.570Z,11.80
2022-09-24T04:23:13.653Z,12.45
2022-09-24T04:25:41.609Z,11.80
2022-09-24T04:28:11.907Z,11.38
2022-09-24T04:30:40.299Z,11.98
2022-09-24T04:33:09.336Z,11.82
2022-09-24T04:35:37.999Z,10.35
2022-09-24T04:38:06.204Z,13.52
2022-09-24T04:40:34.500Z,10.50
2022-09-24T04:43:03.467Z,13.05
2022-09-24T04:45:33.299Z,10.50
2022-09-24T04:48:01.583Z,13.25
2022-09-24T04:50:33.143Z,14.30
2022-09-24T04:53:02.417Z,10.80
2022-09-24T04:55:32.196Z,10.43
2022-09-24T04:58:00.471Z,14.75
2022-09-24T05:00:28.443Z,12.20
2022-09-24T05:03:03.657Z,11.55
2022-09-24T05:05:32.231Z,11.10
2022-09-24T05:08:01.329Z,14.82
2022-09-24T05:10:31.390Z,13.60
2022-09-24T05:12:59.310Z,14.40
2022-09-24T05:15:27.529Z,14.10
2022-09-24T05:17:55.416Z,13.90
2022-09-24T05:20:25.261Z,14.20
2022-09-24T05:22:53.254Z,13.45
2022-09-24T05:25:22.866Z,12.77
2022-09-24T05:27:51.772Z,14.45
2022-09-24T05:30:21.694Z,10.98
2022-09-24T05:32:52.299Z,10.95
2022-09-24T05:35:24.162Z,17.77
2022-09-24T05:37:54.125Z,11.67
2022-09-24T05:40:40.425Z,13.73
2022-09-24T05:43:08.536Z,12.52
2022-09-24T05:45:36.458Z,16.60
2022-09-24T05:48:05.441Z,12.02
2022-09-24T05:50:34.769Z,10.05
2022-09-24T05:53:06.863Z,7.78
2022-09-24T05:55:34.993Z,10.65
2022-09-24T05:58:07.197Z,9.50
2022-09-24T06:00:36.005Z,13.80
2022-09-24T06:03:07.605Z,9.85
2022-09-24T06:05:36.078Z,15.20
2022-09-24T06:08:06.105Z,7.78
2022-09-24T06:10:36.074Z,10.65
2022-09-24T06:13:04.329Z,11.07
2022-09-24T06:15:32.238Z,9.30
2022-09-24T06:18:00.129Z,12.00
2022-09-24T06:20:28.103Z,8.48
2022-09-24T06:22:57.361Z,14.07
2022-09-24T06:25:29.952Z,12.77
2022-09-24T06:30:29.435Z,9.65
2022-09-24T06:33:02.863Z,13.40
2022-09-24T06:35:31.926Z,11.80
2022-09-24T06:37:59.811Z,10.35
2022-09-24T06:40:33.983Z,10.45
2022-09-24T06:43:04.341Z,9.60
2022-09-24T06:45:32.226Z,10.10
2022-09-24T06:48:02.131Z,9.05
2022-09-24T06:50:31.704Z,8.63
2022-09-24T06:52:59.823Z,9.57
2022-09-24T06:55:29.122Z,11.35
2022-09-24T06:58:04.300Z,12.82
2022-09-24T07:00:32.714Z,7.93
2022-09-24T07:03:00.788Z,8.45
2022-09-24T07:05:28.813Z,8.90
2022-09-24T07:07:56.776Z,11.55
2022-09-24T07:10:25.933Z,10.35
2022-09-24T07:12:55.463Z,11.32
2022-09-24T07:15:23.456Z,9.05
2022-09-24T07:17:56.344Z,9.43
2022-09-24T07:20:24.749Z,11.45
2022-09-24T07:22:52.752Z,10.75
2022-09-24T07:25:20.729Z,9.45
2022-09-24T07:27:48.669Z,14.65
2022-09-24T07:30:18.665Z,13.07
2022-09-24T07:32:46.667Z,8.55
2022-09-24T07:35:15.308Z,12.40
2022-09-24T07:37:43.183Z,12.63
2022-09-24T07:40:11.844Z,11.45
2022-09-24T07:42:46.893Z,8.60
2022-09-24T07:45:15.744Z,11.38
2022-09-24T07:47:47.509Z,11.73
2022-09-24T07:50:16.795Z,9.80
2022-09-24T07:52:45.068Z,11.02
2022-09-24T07:55:12.971Z,10.45
2022-09-24T07:57:41.123Z,9.10
2022-09-24T08:00:12.952Z,11.35
2022-09-24T08:02:40.878Z,9.25
2022-09-24T08:05:15.488Z,9.98
2022-09-24T08:07:43.834Z,8.10
2022-09-24T08:10:11.961Z,7.97
2022-09-24T08:12:39.916Z,11.43
2022-09-24T08:15:08.457Z,10.00
2022-09-24T08:17:36.382Z,13.35
2022-09-24T08:20:04.429Z,13.85
2022-09-24T08:22:34.548Z,10.43
2022-09-24T08:25:04.311Z,12.45
2022-09-24T08:27:32.724Z,12.13
2022-09-24T08:30:00.871Z,9.35
2022-09-24T08:32:29.177Z,12.65
2022-09-24T08:34:59.555Z,12.30
2022-09-24T08:37:29.095Z,9.20
2022-09-24T08:39:58.389Z,10.88
2022-09-24T08:42:38.124Z,12.27
2022-09-24T08:45:24.815Z,11.80
2022-09-24T08:47:58.267Z,12.35
2022-09-24T08:50:30.208Z,13.43
2022-09-24T08:53:07.804Z,9.45
2022-09-24T08:55:42.308Z,10.45
2022-09-24T08:58:29.697Z,8.45
2022-09-24T09:01:06.114Z,8.88
2022-09-24T09:03:38.422Z,10.77
2022-09-24T09:06:13.267Z,10.98
2022-09-24T09:09:06.375Z,8.75
2022-09-24T09:11:38.831Z,8.95
2022-09-24T09:14:13.781Z,8.00
2022-09-24T09:16:48.363Z,8.45
2022-09-24T09:19:18.709Z,8.75
2022-09-24T09:21:52.620Z,7.30
2022-09-24T09:24:23.270Z,11.88
2022-09-24T09:26:55.955Z,9.13
2022-09-24T09:29:25.971Z,10.02
2022-09-24T09:32:06.072Z,11.80
2022-09-24T09:34:47.179Z,10.75
2022-09-24T09:37:26.226Z,8.20
2022-09-24T09:40:04.242Z,12.05
2022-09-24T09:42:36.270Z,8.10
2022-09-24T09:45:25.469Z,10.98
2022-09-24T09:47:57.631Z,8.40
2022-09-24T09:50:29.159Z,8.45
2022-09-24T09:52:57.684Z,10.80
2022-09-24T09:55:27.762Z,8.18
2022-09-24T09:58:11.529Z,12.73
2022-09-24T10:00:39.963Z,10.73
2022-09-24T10:03:08.263Z,7.25
2022-09-24T10:05:36.364Z,9.30
2022-09-24T10:08:04.346Z,8.23
2022-09-24T10:10:32.307Z,9.68
2022-09-24T10:13:13.527Z,9.10
2022-09-24T10:15:50.491Z,9.13
2022-09-24T10:18:23.695Z,11.55
2022-09-24T10:20:52.451Z,8.82
2022-09-24T10:23:24.441Z,9.63
2022-09-24T10:25:59.047Z,7.47
2022-09-24T10:28:47.783Z,8.80
2022-09-24T10:31:20.371Z,11.10
2022-09-24T10:33:51.157Z,10.50
2022-09-24T10:36:22.854Z,8.15
2022-09-24T10:38:51.160Z,7.65
2022-09-24T10:41:28.553Z,9.68
2022-09-24T10:44:02.076Z,8.07
2022-09-24T10:47:11.681Z,7.97
2022-09-24T10:49:55.353Z,8.00
2022-09-24T10:52:37.559Z,9.00
2022-09-24T10:55:16.158Z,6.82
2022-09-24T10:57:51.911Z,9.25
2022-09-24T11:00:23.181Z,6.70
2022-09-24T11:03:15.943Z,8.07
2022-09-24T11:08:26.183Z,8.07
2022-09-24T11:11:09.956Z,6.95
2022-09-24T11:13:51.232Z,7.65
2022-09-24T11:16:49.157Z,6.80
2022-09-24T11:19:31.700Z,5.90
2022-09-24T11:22:10.447Z,6.25
2022-09-24T11:25:06.267Z,6.50
2022-09-24T11:27:57.581Z,9.00
2022-09-24T11:30:29.022Z,8.68
2022-09-24T11:33:12.968Z,5.87
2022-09-24T11:36:04.689Z,7.78
2022-09-24T11:38:44.750Z,7.20
2022-09-24T11:41:27.954Z,7.03
2022-09-24T11:44:13.527Z,7.78
2022-09-24T11:46:51.932Z,8.73
2022-09-24T11:49:45.317Z,7.32
2022-09-24T11:52:22.005Z,7.15
2022-09-24T11:55:01.960Z,9.70
2022-09-24T11:57:32.799Z,8.13
2022-09-24T12:00:07.028Z,8.65
2022-09-24T12:02:38.884Z,5.97
2022-09-24T12:05:14.137Z,7.97
2022-09-24T12:07:49.023Z,6.55
2022-09-24T12:10:29.625Z,4.45
2022-09-24T12:13:04.256Z,7.82
2022-09-24T12:15:41.522Z,5.95
2022-09-24T12:18:17.096Z,7.45
2022-09-24T12:20:50.928Z,5.00
2022-09-24T12:23:25.933Z,5.93
2022-09-24T12:25:53.862Z,5.70
2022-09-24T12:28:40.435Z,6.28
2022-09-24T12:31:34.665Z,5.05
2022-09-24T12:34:11.543Z,8.60
2022-09-24T12:36:57.508Z,5.20
2022-09-24T12:39:29.946Z,5.22
2022-09-24T12:44:35.368Z,4.85
2022-09-24T12:47:03.893Z,6.22
2022-09-24T12:49:35.552Z,6.10
2022-09-24T12:52:17.197Z,7.78
2022-09-24T12:54:46.145Z,5.63
2022-09-24T12:57:21.294Z,5.90
2022-09-24T12:59:54.069Z,5.70
2022-09-24T13:02:24.645Z,7.53
2022-09-24T13:05:06.689Z,6.95
2022-09-24T13:07:38.292Z,7.57
2022-09-24T13:10:25.921Z,6.53
2022-09-24T13:12:54.528Z,4.93
2022-09-24T13:15:36.011Z,9.20
2022-09-24T13:18:06.898Z,5.23
2022-09-24T13:20:36.593Z,5.15
2022-09-24T13:23:31.790Z,5.28
2022-09-24T13:26:03.049Z,5.88
2022-09-24T13:28:38.679Z,6.72
2022-09-24T13:31:27.105Z,10.10
2022-09-24T13:33:59.394Z,4.47
2022-09-24T13:39:05.077Z,7.82
2022-09-24T13:41:44.141Z,5.45
2022-09-24T13:44:18.263Z,7.22
2022-09-24T13:46:48.625Z,4.40
2022-09-24T13:49:19.737Z,6.53
2022-09-24T13:52:01.804Z,6.53
2022-09-24T13:54:38.156Z,5.13
2022-09-24T13:57:12.696Z,5.93
2022-09-24T13:59:40.618Z,7.10
2022-09-24T14:02:28.256Z,6.93
2022-09-24T14:04:58.576Z,4.97
2022-09-24T14:07:28.646Z,7.40
2022-09-24T14:10:07.571Z,7.72
2022-09-24T14:12:35.541Z,7.20
2022-09-24T14:15:15.303Z,4.65
2022-09-24T14:17:43.287Z,9.43
2022-09-24T14:20:15.706Z,8.27
2022-09-24T14:22:46.228Z,5.18
2022-09-24T14:25:18.968Z,5.45
2022-09-24T14:27:50.583Z,4.38
2022-09-24T14:30:20.750Z,4.47
2022-09-24T14:32:54.753Z,4.93
2022-09-24T14:35:30.152Z,5.47
2022-09-24T14:38:04.368Z,4.78
2022-09-24T14:40:42.147Z,5.50
2022-09-24T14:43:18.629Z,7.60
2022-09-24T14:45:47.933Z,5.15
2022-09-24T14:48:26.695Z,6.15
2022-09-24T14:50:54.675Z,6.10
2022-09-24T14:53:27.034Z,6.65
2022-09-24T14:55:57.354Z,4.85
2022-09-24T14:58:27.317Z,5.35
2022-09-24T15:00:58.154Z,6.07
2022-09-24T15:03:33.254Z,8.02
2022-09-24T15:06:07.275Z,7.95
2022-09-24T15:08:35.368Z,8.57
2022-09-24T15:11:06.441Z,4.43
2022-09-24T15:13:35.761Z,4.30
2022-09-24T15:16:05.824Z,5.18
2022-09-24T15:18:35.314Z,5.30
2022-09-24T15:21:06.292Z,7.35
2022-09-24T15:23:34.283Z,6.07
2022-09-24T15:26:02.311Z,6.40
2022-09-24T15:28:32.388Z,6.05
2022-09-24T15:31:00.401Z,9.73
2022-09-24T15:33:28.417Z,7.85
2022-09-24T15:35:56.364Z,5.25
2022-09-24T15:38:24.372Z,5.55
2022-09-24T15:40:53.756Z,4.88
2022-09-24T15:43:25.617Z,5.00
2022-09-24T15:45:55.057Z,8.32
2022-09-24T15:48:22.947Z,6.30
2022-09-24T15:50:51.782Z,6.10
2022-09-24T15:53:23.879Z,6.85
2022-09-24T15:55:54.812Z,5.95
2022-09-24T15:58:23.928Z,6.63
2022-09-24T16:00:52.761Z,5.80
2022-09-24T16:03:25.494Z,7.25
2022-09-24T16:05:53.914Z,7.10
2022-09-24T16:08:22.069Z,5.80
2022-09-24T16:10:50.085Z,5.68
2022-09-24T16:13:19.903Z,6.40
2022-09-24T16:15:48.142Z,5.22
2022-09-24T16:18:17.732Z,5.80
2022-09-24T16:20:47.421Z,6.82
2022-09-24T16:23:16.715Z,6.28
2022-09-24T16:25:55.633Z,8.20
2022-09-24T16:28:23.715Z,8.27
2022-09-24T16:30:51.880Z,6.00
2022-09-24T16:33:20.088Z,5.03
2022-09-24T16:35:49.441Z,5.22
2022-09-24T16:38:22.629Z,4.68
2022-09-24T16:40:59.762Z,5.15
2022-09-24T16:43:27.730Z,5.00
2022-09-24T16:46:00.394Z,5.30
2022-09-24T16:48:28.560Z,5.18
2022-09-24T16:51:03.190Z,6.82
2022-09-24T16:53:31.323Z,6.53
2022-09-24T16:56:04.886Z,6.20
2022-09-24T16:58:33.359Z,6.95
2022-09-24T17:01:04.466Z,10.63
2022-09-24T17:03:32.492Z,11.98
2022-09-24T17:06:02.616Z,7.55
2022-09-24T17:08:46.489Z,9.43
2022-09-24T17:11:14.580Z,6.15
2022-09-24T17:13:42.548Z,5.63
2022-09-24T17:16:10.874Z,4.72
2022-09-24T17:18:38.782Z,5.18
2022-09-24T17:21:13.164Z,7.95
2022-09-24T17:23:41.378Z,9.57
2022-09-24T17:26:11.581Z,6.25
2022-09-24T17:28:41.536Z,5.05
2022-09-24T17:31:12.019Z,6.05
2022-09-24T17:33:44.000Z,12.07
2022-09-24T17:36:17.168Z,6.22
2022-09-24T17:38:45.435Z,5.60
2022-09-24T17:41:15.072Z,6.22
2022-09-24T17:43:43.056Z,8.27
2022-09-24T17:46:14.651Z,10.15
2022-09-24T17:48:45.270Z,8.93
2022-09-24T17:51:17.130Z,9.20
2022-09-24T17:53:47.363Z,10.55
2022-09-24T17:56:16.225Z,10.30
2022-09-24T17:58:46.840Z,11.55
2022-09-24T18:01:19.564Z,7.05
2022-09-24T18:03:48.719Z,9.00
2022-09-24T18:06:18.167Z,7.63
2022-09-24T18:08:47.008Z,9.52
2022-09-24T18:11:17.368Z,10.23
2022-09-24T18:13:45.546Z,9.13
2022-09-24T18:16:15.757Z,7.68
2022-09-24T18:18:45.230Z,7.25
2022-09-24T18:21:15.413Z,6.43
2022-09-24T18:23:44.677Z,7.95
2022-09-24T18:26:15.948Z,5.78
2022-09-24T18:28:58.136Z,9.57
2022-09-24T18:31:28.133Z,8.73
2022-09-24T18:33:58.106Z,7.95
2022-09-24T18:36:32.331Z,9.02
2022-09-24T18:39:01.856Z,9.75
2022-09-24T18:41:31.376Z,6.20
2022-09-24T18:44:01.094Z,8.93
2022-09-24T18:46:30.883Z,8.10
2022-09-24T18:48:59.842Z,8.88
2022-09-24T18:51:30.188Z,12.10
2022-09-24T18:54:00.044Z,10.43
2022-09-24T18:56:29.578Z,11.00
2022-09-24T18:59:04.712Z,8.70
2022-09-24T19:01:35.590Z,13.48
2022-09-24T19:04:04.093Z,10.73
2022-09-24T19:06:32.531Z,8.43
2022-09-24T19:09:00.677Z,10.90
2022-09-24T19:11:30.520Z,11.95
2022-09-24T19:13:59.487Z,12.98
2022-09-24T19:16:27.664Z,12.82
2022-09-24T19:18:56.872Z,11.23
2022-09-24T19:21:25.243Z,11.63
2022-09-24T19:23:54.752Z,12.70
2022-09-24T19:26:24.433Z,13.90
2022-09-24T19:28:54.189Z,14.43
2022-09-24T19:31:24.208Z,11.40
2022-09-24T19:33:53.760Z,14.07
2022-09-24T19:36:22.445Z,12.02
2022-09-24T19:38:51.914Z,12.10
2022-09-24T19:41:24.944Z,10.00
2022-09-24T19:43:56.871Z,11.20
2022-09-24T19:46:26.790Z,12.77
2022-09-24T19:48:56.418Z,9.70
2022-09-24T19:51:26.037Z,12.77
2022-09-24T19:53:55.388Z,11.45
2022-09-24T19:56:25.447Z,9.75
2022-09-24T19:58:56.216Z,9.75
2022-09-24T20:01:27.933Z,11.98
2022-09-24T20:03:57.001Z,11.35
2022-09-24T20:06:27.071Z,10.50
2022-09-24T20:08:55.282Z,10.95
2022-09-24T20:11:25.507Z,9.48
2022-09-24T20:13:56.464Z,10.95
2022-09-24T20:16:26.970Z,10.70
2022-09-24T20:18:57.737Z,10.32
2022-09-24T20:21:27.715Z,8.77
2022-09-24T20:23:57.415Z,13.30
2022-09-24T20:26:44.189Z,10.57
2022-09-24T20:29:14.266Z,11.35
2022-09-24T20:31:51.702Z,12.20
2022-09-24T20:34:20.877Z,14.52
2022-09-24T20:36:49.123Z,9.65
2022-09-24T20:39:17.644Z,13.07
2022-09-24T20:41:45.633Z,12.10
2022-09-24T20:44:14.866Z,16.17
2022-09-24T20:46:43.313Z,12.70
2022-09-24T20:49:18.177Z,14.30
2022-09-24T20:51:47.308Z,14.70
2022-09-24T20:54:15.435Z,9.77
2022-09-24T20:56:44.058Z,12.63
2022-09-24T20:59:12.490Z,11.82
2022-09-24T21:01:44.704Z,10.63
2022-09-24T21:04:13.129Z,11.27
2022-09-24T21:06:41.041Z,11.60
2022-09-24T21:09:09.558Z,10.32
2022-09-24T21:11:37.747Z,8.95
2022-09-24T21:14:06.267Z,10.80
2022-09-24T21:16:35.610Z,9.05
2022-09-24T21:19:07.764Z,9.88
2022-09-24T21:21:38.931Z,7.93
2022-09-24T21:24:09.770Z,12.35
2022-09-24T21:26:39.456Z,10.43
2022-09-24T21:29:09.474Z,10.68
2022-09-24T21:31:39.141Z,10.45
2022-09-24T21:34:09.160Z,11.75
2022-09-24T21:36:44.037Z,8.77
2022-09-24T21:39:15.517Z,10.27
2022-09-24T21:41:44.295Z,9.25
2022-09-24T21:44:15.586Z,10.55
2022-09-24T21:46:43.995Z,11.55
2022-09-24T21:49:13.655Z,12.75
2022-09-24T21:51:41.886Z,10.52
2022-09-24T21:54:13.385Z,11.00
2022-09-24T21:56:41.375Z,10.70
2022-09-24T21:59:23.658Z,11.05
2022-09-24T22:01:51.662Z,9.48
2022-09-24T22:04:21.382Z,12.40
2022-09-24T22:06:51.246Z,10.60
2022-09-24T22:09:19.916Z,11.38
2022-09-24T22:11:48.325Z,12.43
2022-09-24T22:14:16.644Z,12.65
2022-09-24T22:16:44.871Z,13.30
2022-09-24T22:19:14.098Z,13.10
2022-09-24T22:21:43.367Z,10.52
2022-09-24T22:24:14.448Z,12.55
2022-09-24T22:26:42.377Z,11.80
2022-09-24T22:29:10.411Z,15.30
2022-09-24T22:31:38.393Z,14.45
2022-09-24T22:34:23.977Z,15.35
2022-09-24T22:36:53.566Z,11.77
2022-09-24T22:39:21.794Z,12.00
2022-09-24T22:41:51.694Z,15.57
2022-09-24T22:44:20.394Z,13.85
2022-09-24T22:46:48.335Z,12.35
2022-09-24T22:49:16.613Z,14.20
2022-09-24T22:51:46.181Z,15.13
2022-09-24T22:54:15.501Z,15.27
2022-09-24T22:56:43.601Z,15.95
2022-09-24T22:59:11.566Z,14.32
2022-09-24T23:01:41.588Z,15.00
2022-09-24T23:04:10.405Z,13.93
2022-09-24T23:06:38.390Z,14.93
2022-09-24T23:09:06.287Z,13.95
2022-09-24T23:11:36.783Z,14.38
2022-09-24T23:14:06.975Z,15.00
2022-09-24T23:16:37.108Z,16.83
2022-09-24T23:19:07.321Z,14.80
2022-09-24T23:21:36.766Z,17.08
2022-09-24T23:24:07.563Z,18.58
2022-09-24T23:26:37.133Z,13.90
2022-09-24T23:29:05.285Z,18.98
2022-09-24T23:31:35.816Z,15.45
2022-09-24T23:34:04.866Z,16.27
2022-09-24T23:36:33.454Z,16.95
2022-09-24T23:39:02.535Z,15.27
2022-09-24T23:41:31.643Z,15.98
2022-09-24T23:44:01.517Z,18.42
2022-09-24T23:46:29.662Z,16.23
2022-09-24T23:48:57.921Z,21.50
2022-09-24T23:51:26.078Z,21.30
2022-09-24T23:53:54.315Z,17.83
2022-09-24T23:56:22.235Z,17.40
2022-09-24T23:58:52.876Z,22.33
